createdAt,value
2018-01-23T00:00:24.093Z,1009.99
2018-01-23T00:01:24.050Z,1009.98
2018-01-23T00:02:24.011Z,1010.02
2018-01-23T00:03:23.968Z,1010.04
2018-01-23T00:04:23.971Z,1010.02
2018-01-23T00:05:23.885Z,1010.08
2018-01-23T00:06:24.133Z,1010.06
2018-01-23T00:07:23.791Z,1010.08
2018-01-23T00:08:23.748Z,1010.05
2018-01-23T00:09:23.707Z,1010.05
2018-01-23T00:10:23.862Z,1010.06
2018-01-23T00:11:23.618Z,1010.08
2018-01-23T00:12:23.625Z,1010.11
2018-01-23T00:13:23.833Z,1010.16
2018-01-23T00:14:23.488Z,1010.14
2018-01-23T00:15:23.447Z,1010.14
2018-01-23T00:16:23.555Z,1010.16
2018-01-23T00:17:23.362Z,1010.16
2018-01-23T00:18:23.316Z,1010.21
2018-01-23T00:19:23.275Z,1010.21
2018-01-23T00:20:23.533Z,1010.23
2018-01-23T00:21:23.187Z,1010.21
2018-01-23T00:22:23.143Z,1010.25
2018-01-23T00:23:23.105Z,1010.24
2018-01-23T00:24:23.066Z,1010.27
2018-01-23T00:25:23.069Z,1010.31
2018-01-23T00:26:22.970Z,1010.30
2018-01-23T00:27:23.284Z,1010.29
2018-01-23T00:28:22.885Z,1010.32
2018-01-23T00:29:22.853Z,1010.32
2018-01-23T00:30:22.799Z,1010.28
2018-01-23T00:31:22.760Z,1010.31
2018-01-23T00:32:22.714Z,1010.35
2018-01-23T00:33:22.722Z,1010.37
2018-01-23T00:34:22.927Z,1010.34
2018-01-23T00:35:22.588Z,1010.33
2018-01-23T00:36:22.541Z,1010.34
2018-01-23T00:37:22.498Z,1010.32
2018-01-23T00:38:22.455Z,1010.30
2018-01-23T00:39:22.464Z,1010.33
2018-01-23T00:40:22.672Z,1010.29
2018-01-23T00:41:22.325Z,1010.29
2018-01-23T00:42:22.282Z,1010.28
2018-01-23T00:43:22.311Z,1010.34
2018-01-23T00:44:22.248Z,1010.33
2018-01-23T00:45:22.160Z,1010.32
2018-01-23T00:46:22.408Z,1010.35
2018-01-23T00:47:22.066Z,1010.35
2018-01-23T00:48:22.072Z,1010.35
2018-01-23T00:49:21.979Z,1010.37
2018-01-23T00:50:21.990Z,1010.35
2018-01-23T00:51:21.894Z,1010.35
2018-01-23T00:52:22.153Z,1010.35
2018-01-23T00:53:21.809Z,1010.37
2018-01-23T00:54:21.769Z,1010.40
2018-01-23T00:55:21.722Z,1010.40
2018-01-23T00:56:21.677Z,1010.37
2018-01-23T00:57:21.638Z,1010.41
2018-01-23T00:58:21.890Z,1010.39
2018-01-23T00:59:21.600Z,1010.37
2018-01-23T01:00:21.555Z,1010.38
2018-01-23T01:01:21.466Z,1010.36
2018-01-23T01:02:21.417Z,1010.39
2018-01-23T01:03:21.374Z,1010.38
2018-01-23T01:04:21.630Z,1010.37
2018-01-23T01:05:21.295Z,1010.36
2018-01-23T01:06:21.294Z,1010.41
2018-01-23T01:07:21.205Z,1010.39
2018-01-23T01:08:21.161Z,1010.41
2018-01-23T01:09:21.116Z,1010.41
2018-01-23T01:10:21.072Z,1010.44
2018-01-23T01:11:21.329Z,1010.45
2018-01-23T01:12:21.038Z,1010.43
2018-01-23T01:13:20.944Z,1010.41
2018-01-23T01:14:20.899Z,1010.45
2018-01-23T01:15:20.858Z,1010.47
2018-01-23T01:16:20.815Z,1010.44
2018-01-23T01:17:20.772Z,1010.47
2018-01-23T01:18:21.027Z,1010.46
2018-01-23T01:19:20.733Z,1010.48
2018-01-23T01:20:20.642Z,1010.50
2018-01-23T01:21:20.598Z,1010.54
2018-01-23T01:22:20.606Z,1010.52
2018-01-23T01:23:20.561Z,1010.47
2018-01-23T01:24:20.523Z,1010.53
2018-01-23T01:25:20.730Z,1010.57
2018-01-23T01:26:20.382Z,1010.54
2018-01-23T01:27:20.345Z,1010.54
2018-01-23T01:28:20.347Z,1010.58
2018-01-23T01:29:20.306Z,1010.61
2018-01-23T01:30:20.258Z,1010.64
2018-01-23T01:31:20.166Z,1010.63
2018-01-23T01:32:20.424Z,1010.60
2018-01-23T01:33:20.081Z,1010.63
2018-01-23T01:34:20.087Z,1010.65
2018-01-23T01:35:19.994Z,1010.68
2018-01-23T01:36:19.951Z,1010.72
2018-01-23T01:37:19.909Z,1010.77
2018-01-23T01:38:19.868Z,1010.72
2018-01-23T01:39:20.122Z,1010.74
2018-01-23T01:40:19.779Z,1010.77
2018-01-23T01:41:19.736Z,1010.73
2018-01-23T01:42:19.694Z,1010.76
2018-01-23T01:43:19.649Z,1010.79
2018-01-23T01:44:19.608Z,1010.77
2018-01-23T01:45:19.613Z,1010.79
2018-01-23T01:46:19.820Z,1010.83
2018-01-23T01:47:19.478Z,1010.83
2018-01-23T01:48:19.434Z,1010.78
2018-01-23T01:49:19.389Z,1010.79
2018-01-23T01:50:19.346Z,1010.77
2018-01-23T01:51:19.353Z,1010.80
2018-01-23T01:52:19.561Z,1010.85
2018-01-23T01:53:19.219Z,1010.86
2018-01-23T01:54:19.179Z,1010.86
2018-01-23T01:55:19.131Z,1010.92
2018-01-23T01:56:19.091Z,1010.91
2018-01-23T01:57:19.046Z,1010.94
2018-01-23T01:58:19.302Z,1010.98
2018-01-23T01:59:18.963Z,1010.99
2018-01-23T02:00:18.920Z,1010.96
2018-01-23T02:01:18.873Z,1011.01
2018-01-23T02:02:18.831Z,1010.96
2018-01-23T02:03:18.786Z,1011.02
2018-01-23T02:04:19.047Z,1011.01
2018-01-23T02:05:18.707Z,1010.98
2018-01-23T02:06:18.661Z,1011.05
2018-01-23T02:07:18.620Z,1011.09
2018-01-23T02:08:18.573Z,1011.09
2018-01-23T02:09:18.531Z,1011.11
2018-01-23T02:10:18.794Z,1011.08
2018-01-23T02:11:18.446Z,1011.08
2018-01-23T02:12:18.448Z,1011.13
2018-01-23T02:13:18.359Z,1011.13
2018-01-23T02:14:18.312Z,1011.12
2018-01-23T02:15:19.284Z,1011.16
2018-01-23T02:16:19.565Z,1011.17
2018-01-23T02:17:19.444Z,1011.19
2018-01-23T02:18:18.733Z,1011.14
2018-01-23T02:19:19.152Z,1011.11
2018-01-23T02:20:18.054Z,1011.19
2018-01-23T02:21:18.997Z,1011.19
2018-01-23T02:22:19.038Z,1011.19
2018-01-23T02:23:18.229Z,1011.22
2018-01-23T02:24:18.874Z,1011.21
2018-01-23T02:25:17.839Z,1011.24
2018-01-23T02:26:17.794Z,1011.24
2018-01-23T02:27:17.751Z,1011.23
2018-01-23T02:28:17.708Z,1011.26
2018-01-23T02:29:17.670Z,1011.25
2018-01-23T02:30:17.931Z,1011.34
2018-01-23T02:31:17.578Z,1011.37
2018-01-23T02:32:17.534Z,1011.34
2018-01-23T02:33:17.691Z,1011.36
2018-01-23T02:34:17.447Z,1011.39
2018-01-23T02:35:17.404Z,1011.37
2018-01-23T02:36:17.360Z,1011.42
2018-01-23T02:37:17.618Z,1011.41
2018-01-23T02:38:17.274Z,1011.36
2018-01-23T02:39:17.230Z,1011.38
2018-01-23T02:40:17.188Z,1011.41
2018-01-23T02:41:17.145Z,1011.42
2018-01-23T02:42:17.102Z,1011.48
2018-01-23T02:43:17.057Z,1011.45
2018-01-23T02:44:17.321Z,1011.46
2018-01-23T02:46:16.931Z,1011.47
2018-01-23T02:47:16.886Z,1011.51
2018-01-23T02:48:16.848Z,1011.53
2018-01-23T02:49:16.802Z,1011.56
2018-01-23T02:50:16.769Z,1011.52
2018-01-23T02:51:17.017Z,1011.51
2018-01-23T02:52:16.691Z,1011.49
2018-01-23T02:53:16.629Z,1011.50
2018-01-23T02:54:16.586Z,1011.53
2018-01-23T02:55:16.542Z,1011.50
2018-01-23T02:56:16.501Z,1011.55
2018-01-23T02:57:16.508Z,1011.53
2018-01-23T02:58:16.712Z,1011.52
2018-01-23T02:59:16.369Z,1011.54
2018-01-23T03:00:16.330Z,1011.61
2018-01-23T03:01:16.336Z,1011.60
2018-01-23T03:02:16.238Z,1011.54
2018-01-23T03:03:16.254Z,1011.61
2018-01-23T03:04:16.459Z,1011.62
2018-01-23T03:05:16.117Z,1011.60
2018-01-23T03:06:16.070Z,1011.64
2018-01-23T03:07:16.022Z,1011.67
2018-01-23T03:08:15.981Z,1011.67
2018-01-23T03:09:15.938Z,1011.66
2018-01-23T03:10:16.193Z,1011.69
2018-01-23T03:11:15.850Z,1011.71
2018-01-23T03:12:15.807Z,1011.69
2018-01-23T03:13:15.763Z,1011.69
2018-01-23T03:14:15.723Z,1011.68
2018-01-23T03:15:15.676Z,1011.72
2018-01-23T03:16:15.946Z,1011.71
2018-01-23T03:17:15.591Z,1011.70
2018-01-23T03:18:15.655Z,1011.69
2018-01-23T03:19:15.504Z,1011.75
2018-01-23T03:20:15.465Z,1011.79
2018-01-23T03:21:15.419Z,1011.75
2018-01-23T03:22:15.675Z,1011.80
2018-01-23T03:23:15.335Z,1011.84
2018-01-23T03:24:15.288Z,1011.81
2018-01-23T03:25:15.254Z,1011.80
2018-01-23T03:26:15.254Z,1011.85
2018-01-23T03:27:15.209Z,1011.85
2018-01-23T03:28:15.422Z,1011.90
2018-01-23T03:29:15.124Z,1011.88
2018-01-23T03:30:15.033Z,1011.87
2018-01-23T03:31:14.997Z,1011.92
2018-01-23T03:32:14.996Z,1011.95
2018-01-23T03:33:14.904Z,1011.97
2018-01-23T03:34:14.856Z,1011.95
2018-01-23T03:35:15.114Z,1011.96
2018-01-23T03:36:14.776Z,1011.98
2018-01-23T03:37:14.728Z,1012.01
2018-01-23T03:38:14.736Z,1011.93
2018-01-23T03:39:14.642Z,1011.98
2018-01-23T03:40:14.598Z,1012.00
2018-01-23T03:41:14.562Z,1011.99
2018-01-23T03:42:14.814Z,1012.00
2018-01-23T03:43:14.531Z,1011.99
2018-01-23T03:44:14.426Z,1011.99
2018-01-23T03:45:14.385Z,1011.98
2018-01-23T03:46:14.389Z,1011.98
2018-01-23T03:47:14.299Z,1011.98
2018-01-23T03:48:14.257Z,1012.00
2018-01-23T03:49:14.513Z,1012.02
2018-01-23T03:50:14.169Z,1012.03
2018-01-23T03:51:14.124Z,1012.04
2018-01-23T03:52:14.093Z,1012.09
2018-01-23T03:53:14.044Z,1012.09
2018-01-23T03:54:14.000Z,1012.08
2018-01-23T03:55:13.959Z,1012.11
2018-01-23T03:56:14.214Z,1012.14
2018-01-23T03:57:13.869Z,1012.11
2018-01-23T03:58:13.824Z,1012.13
2018-01-23T03:59:13.783Z,1012.16
2018-01-23T04:00:13.746Z,1012.21
2018-01-23T04:01:13.695Z,1012.22
2018-01-23T04:02:13.655Z,1012.24
2018-01-23T04:03:13.909Z,1012.17
2018-01-23T04:04:13.575Z,1012.24
2018-01-23T04:05:13.524Z,1012.21
2018-01-23T04:06:13.481Z,1012.17
2018-01-23T04:07:13.486Z,1012.20
2018-01-23T04:08:13.445Z,1012.20
2018-01-23T04:09:13.357Z,1012.22
2018-01-23T04:10:13.608Z,1012.22
2018-01-23T04:11:13.264Z,1012.20
2018-01-23T04:12:13.272Z,1012.27
2018-01-23T04:13:13.177Z,1012.27
2018-01-23T04:14:13.188Z,1012.32
2018-01-23T04:15:13.095Z,1012.35
2018-01-23T04:16:13.359Z,1012.33
2018-01-23T04:17:13.058Z,1012.38
2018-01-23T04:18:12.966Z,1012.38
2018-01-23T04:19:12.924Z,1012.40
2018-01-23T04:20:13.037Z,1012.36
2018-01-23T04:21:12.844Z,1012.42
2018-01-23T04:22:13.090Z,1012.38
2018-01-23T04:23:12.752Z,1012.35
2018-01-23T04:24:12.707Z,1012.39
2018-01-23T04:25:12.661Z,1012.41
2018-01-23T04:26:12.618Z,1012.42
2018-01-23T04:27:12.574Z,1012.44
2018-01-23T04:28:12.831Z,1012.43
2018-01-23T04:29:12.488Z,1012.44
2018-01-23T04:30:12.447Z,1012.45
2018-01-23T04:31:12.401Z,1012.45
2018-01-23T04:32:12.358Z,1012.47
2018-01-23T04:33:12.315Z,1012.49
2018-01-23T04:34:12.575Z,1012.49
2018-01-23T04:35:12.234Z,1012.47
2018-01-23T04:36:12.486Z,1012.50
2018-01-23T04:37:12.145Z,1012.52
2018-01-23T04:38:12.100Z,1012.52
2018-01-23T04:39:12.058Z,1012.49
2018-01-23T04:40:12.316Z,1012.51
2018-01-23T04:41:11.989Z,1012.54
2018-01-23T04:42:12.137Z,1012.54
2018-01-23T04:43:11.890Z,1012.50
2018-01-23T04:44:11.848Z,1012.55
2018-01-23T04:45:11.850Z,1012.58
2018-01-23T04:46:11.811Z,1012.58
2018-01-23T04:47:12.013Z,1012.62
2018-01-23T04:48:11.722Z,1012.61
2018-01-23T04:49:11.626Z,1012.63
2018-01-23T04:50:11.582Z,1012.64
2018-01-23T04:51:11.590Z,1012.60
2018-01-23T04:52:11.499Z,1012.63
2018-01-23T04:53:11.454Z,1012.64
2018-01-23T04:54:11.709Z,1012.61
2018-01-23T04:55:11.421Z,1012.70
2018-01-23T04:56:11.329Z,1012.69
2018-01-23T04:57:11.302Z,1012.69
2018-01-23T04:58:11.239Z,1012.70
2018-01-23T04:59:11.197Z,1012.73
2018-01-23T05:00:11.203Z,1012.76
2018-01-23T05:01:11.410Z,1012.77
2018-01-23T05:02:11.074Z,1012.77
2018-01-23T05:03:11.024Z,1012.76
2018-01-23T05:04:11.130Z,1012.78
2018-01-23T05:05:10.941Z,1012.72
2018-01-23T05:06:10.896Z,1012.72
2018-01-23T05:07:10.850Z,1012.70
2018-01-23T05:08:11.106Z,1012.71
2018-01-23T05:09:10.774Z,1012.72
2018-01-23T05:10:10.777Z,1012.73
2018-01-23T05:11:10.731Z,1012.75
2018-01-23T05:12:10.641Z,1012.77
2018-01-23T05:13:10.589Z,1012.74
2018-01-23T05:14:10.551Z,1012.76
2018-01-23T05:15:10.804Z,1012.74
2018-01-23T05:16:10.462Z,1012.75
2018-01-23T05:17:10.417Z,1012.76
2018-01-23T05:18:10.373Z,1012.77
2018-01-23T05:19:10.338Z,1012.80
2018-01-23T05:20:10.355Z,1012.82
2018-01-23T05:21:10.245Z,1012.82
2018-01-23T05:22:10.502Z,1012.83
2018-01-23T05:23:10.208Z,1012.85
2018-01-23T05:24:10.116Z,1012.87
2018-01-23T05:25:10.075Z,1012.88
2018-01-23T05:26:10.231Z,1012.94
2018-01-23T05:27:09.988Z,1012.92
2018-01-23T05:28:10.245Z,1012.89
2018-01-23T05:29:09.952Z,1012.92
2018-01-23T05:30:09.864Z,1012.92
2018-01-23T05:31:09.815Z,1012.92
2018-01-23T05:32:09.821Z,1012.92
2018-01-23T05:33:09.730Z,1012.89
2018-01-23T05:34:09.989Z,1012.94
2018-01-23T05:35:09.642Z,1012.92
2018-01-23T05:36:09.600Z,1012.96
2018-01-23T05:37:09.556Z,1012.96
2018-01-23T05:38:09.568Z,1012.97
2018-01-23T05:39:09.472Z,1013.04
2018-01-23T05:40:09.727Z,1013.04
2018-01-23T05:41:09.435Z,1013.02
2018-01-23T05:42:09.339Z,1013.05
2018-01-23T05:43:09.299Z,1013.03
2018-01-23T05:44:09.255Z,1013.06
2018-01-23T05:45:09.264Z,1013.02
2018-01-23T05:46:09.472Z,1013.08
2018-01-23T05:47:09.127Z,1013.08
2018-01-23T05:48:09.087Z,1013.06
2018-01-23T05:49:09.041Z,1013.11
2018-01-23T05:50:08.997Z,1013.09
2018-01-23T05:51:08.955Z,1013.11
2018-01-23T05:52:09.214Z,1013.15
2018-01-23T05:53:08.868Z,1013.20
2018-01-23T05:54:08.875Z,1013.21
2018-01-23T05:55:08.788Z,1013.22
2018-01-23T05:56:08.739Z,1013.23
2018-01-23T05:57:08.703Z,1013.23
2018-01-23T05:58:08.658Z,1013.27
2018-01-23T05:59:08.910Z,1013.29
2018-01-23T06:00:08.616Z,1013.28
2018-01-23T06:01:08.524Z,1013.35
2018-01-23T06:02:08.481Z,1013.38
2018-01-23T06:03:08.439Z,1013.39
2018-01-23T06:04:08.395Z,1013.34
2018-01-23T06:05:08.405Z,1013.41
2018-01-23T06:06:08.611Z,1013.38
2018-01-23T06:07:08.267Z,1013.37
2018-01-23T06:08:08.225Z,1013.38
2018-01-23T06:09:08.181Z,1013.37
2018-01-23T06:10:08.140Z,1013.39
2018-01-23T06:11:08.147Z,1013.40
2018-01-23T06:12:08.054Z,1013.44
2018-01-23T06:13:08.308Z,1013.46
2018-01-23T06:14:08.014Z,1013.44
2018-01-23T06:15:07.920Z,1013.43
2018-01-23T06:16:07.877Z,1013.38
2018-01-23T06:17:08.041Z,1013.39
2018-01-23T06:18:07.847Z,1013.38
2018-01-23T06:19:07.804Z,1013.43
2018-01-23T06:20:08.006Z,1013.44
2018-01-23T06:21:07.723Z,1013.47
2018-01-23T06:22:07.620Z,1013.43
2018-01-23T06:23:07.877Z,1013.47
2018-01-23T06:24:07.533Z,1013.49
2018-01-23T06:25:07.488Z,1013.43
2018-01-23T06:26:07.448Z,1013.44
2018-01-23T06:27:07.702Z,1013.46
2018-01-23T06:28:07.409Z,1013.45
2018-01-23T06:29:07.317Z,1013.43
2018-01-23T06:30:07.276Z,1013.40
2018-01-23T06:31:07.231Z,1013.41
2018-01-23T06:32:07.189Z,1013.42
2018-01-23T06:33:07.153Z,1013.47
2018-01-23T06:34:07.401Z,1013.48
2018-01-23T06:35:07.063Z,1013.51
2018-01-23T06:36:07.015Z,1013.51
2018-01-23T06:37:07.024Z,1013.49
2018-01-23T06:38:06.939Z,1013.46
2018-01-23T06:39:06.941Z,1013.46
2018-01-23T06:40:07.142Z,1013.46
2018-01-23T06:41:06.800Z,1013.47
2018-01-23T06:42:06.807Z,1013.48
2018-01-23T06:43:06.717Z,1013.42
2018-01-23T06:44:06.722Z,1013.44
2018-01-23T06:45:06.675Z,1013.51
2018-01-23T06:46:06.883Z,1013.46
2018-01-23T06:47:06.590Z,1013.50
2018-01-23T06:48:06.557Z,1013.43
2018-01-23T06:49:06.525Z,1013.45
2018-01-23T06:50:06.574Z,1013.49
2018-01-23T06:51:06.419Z,1013.48
2018-01-23T06:52:06.635Z,1013.48
2018-01-23T06:53:06.279Z,1013.51
2018-01-23T06:54:06.287Z,1013.54
2018-01-23T06:55:06.253Z,1013.52
2018-01-23T06:56:06.200Z,1013.55
2018-01-23T06:57:06.159Z,1013.50
2018-01-23T06:58:06.363Z,1013.52
2018-01-23T06:59:06.080Z,1013.54
2018-01-23T07:00:06.033Z,1013.57
2018-01-23T07:01:05.981Z,1013.58
2018-01-23T07:02:05.960Z,1013.64
2018-01-23T07:03:05.852Z,1013.60
2018-01-23T07:04:06.106Z,1013.59
2018-01-23T07:05:05.811Z,1013.67
2018-01-23T07:06:05.715Z,1013.69
2018-01-23T07:07:05.670Z,1013.62
2018-01-23T07:08:05.630Z,1013.69
2018-01-23T07:09:05.581Z,1013.69
2018-01-23T07:10:05.570Z,1013.72
2018-01-23T07:11:05.803Z,1013.81
2018-01-23T07:12:05.502Z,1013.81
2018-01-23T07:13:05.458Z,1013.75
2018-01-23T07:14:05.365Z,1013.84
2018-01-23T07:15:05.323Z,1013.82
2018-01-23T07:16:05.283Z,1013.84
2018-01-23T07:17:05.241Z,1013.80
2018-01-23T07:18:05.691Z,1013.83
2018-01-23T07:19:05.148Z,1013.83
2018-01-23T07:20:05.105Z,1013.89
2018-01-23T07:21:05.058Z,1013.87
2018-01-23T07:22:05.014Z,1013.87
2018-01-23T07:23:05.172Z,1013.91
2018-01-23T07:24:04.927Z,1013.95
2018-01-23T07:25:05.187Z,1013.94
2018-01-23T07:26:04.839Z,1013.96
2018-01-23T07:27:04.801Z,1013.99
2018-01-23T07:28:04.803Z,1013.95
2018-01-23T07:29:04.714Z,1013.94
2018-01-23T07:30:04.670Z,1013.98
2018-01-23T07:31:04.671Z,1014.01
2018-01-23T07:32:04.878Z,1013.98
2018-01-23T07:33:04.537Z,1013.96
2018-01-23T07:34:04.491Z,1014.03
2018-01-23T07:35:04.507Z,1014.02
2018-01-23T07:36:04.603Z,1013.99
2018-01-23T07:37:04.359Z,1014.03
2018-01-23T07:38:04.328Z,1014.00
2018-01-23T07:39:04.578Z,1013.96
2018-01-23T07:40:04.284Z,1014.03
2018-01-23T07:41:04.189Z,1014.06
2018-01-23T07:42:04.149Z,1014.05
2018-01-23T07:43:04.098Z,1014.00
2018-01-23T07:44:04.104Z,1014.05
2018-01-23T07:45:04.014Z,1014.11
2018-01-23T07:46:04.320Z,1014.03
2018-01-23T07:47:03.925Z,1014.08
2018-01-23T07:48:03.930Z,1014.08
2018-01-23T07:49:03.844Z,1014.09
2018-01-23T07:50:03.800Z,1014.12
2018-01-23T07:51:03.751Z,1014.11
2018-01-23T07:52:04.007Z,1014.15
2018-01-23T07:53:03.668Z,1014.18
2018-01-23T07:54:03.619Z,1014.22
2018-01-23T07:55:03.580Z,1014.13
2018-01-23T07:56:03.583Z,1014.24
2018-01-23T07:57:03.540Z,1014.19
2018-01-23T07:58:03.754Z,1014.24
2018-01-23T07:59:03.456Z,1014.26
2018-01-23T08:00:03.417Z,1014.20
2018-01-23T08:01:03.321Z,1014.27
2018-01-23T08:02:03.272Z,1014.25
2018-01-23T08:03:03.279Z,1014.28
2018-01-23T08:04:03.489Z,1014.29
2018-01-23T08:05:03.140Z,1014.28
2018-01-23T08:06:03.148Z,1014.30
2018-01-23T08:07:03.108Z,1014.34
2018-01-23T08:08:03.022Z,1014.34
2018-01-23T08:09:03.021Z,1014.37
2018-01-23T08:10:03.227Z,1014.36
2018-01-23T08:11:02.935Z,1014.32
2018-01-23T08:12:02.837Z,1014.41
2018-01-23T08:13:02.846Z,1014.39
2018-01-23T08:14:02.950Z,1014.40
2018-01-23T08:15:02.759Z,1014.48
2018-01-23T08:16:03.014Z,1014.47
2018-01-23T08:17:02.671Z,1014.51
2018-01-23T08:18:02.630Z,1014.46
2018-01-23T08:19:02.535Z,1014.55
2018-01-23T08:20:02.495Z,1014.55
2018-01-23T08:21:02.448Z,1014.50
2018-01-23T08:22:02.411Z,1014.56
2018-01-23T08:23:02.717Z,1014.50
2018-01-23T08:24:02.373Z,1014.55
2018-01-23T08:25:02.326Z,1014.53
2018-01-23T08:26:02.434Z,1014.57
2018-01-23T08:27:02.194Z,1014.57
2018-01-23T08:28:02.256Z,1014.56
2018-01-23T08:29:02.153Z,1014.54
2018-01-23T08:30:02.458Z,1014.59
2018-01-23T08:31:02.073Z,1014.50
2018-01-23T08:32:02.020Z,1014.60
2018-01-23T08:33:02.134Z,1014.55
2018-01-23T08:34:01.934Z,1014.52
2018-01-23T08:35:01.856Z,1014.52
2018-01-23T08:36:01.952Z,1014.55
2018-01-23T08:37:02.071Z,1014.52
2018-01-23T08:38:01.867Z,1014.51
2018-01-23T08:39:01.724Z,1014.53
2018-01-23T08:40:01.627Z,1014.50
2018-01-23T08:41:01.645Z,1014.52
2018-01-23T08:42:01.595Z,1014.56
2018-01-23T08:43:01.566Z,1014.51
2018-01-23T08:44:01.910Z,1014.53
2018-01-23T08:45:01.411Z,1014.57
2018-01-23T08:46:01.519Z,1014.56
2018-01-23T08:47:01.338Z,1014.54
2018-01-23T08:48:01.432Z,1014.51
2018-01-23T08:49:01.294Z,1014.51
2018-01-23T08:50:01.257Z,1014.51
2018-01-23T08:51:01.451Z,1014.54
2018-01-23T08:52:01.112Z,1014.57
2018-01-23T08:53:01.156Z,1014.49
2018-01-23T08:54:01.025Z,1014.46
2018-01-23T08:55:00.982Z,1014.56
2018-01-23T08:56:01.008Z,1014.55
2018-01-23T08:57:00.893Z,1014.58
2018-01-23T08:58:01.203Z,1014.55
2018-01-23T08:59:00.812Z,1014.50
2018-01-23T09:00:00.818Z,1014.58
2018-01-23T09:01:00.933Z,1014.59
2018-01-23T09:02:00.682Z,1014.60
2018-01-23T09:03:00.694Z,1014.62
2018-01-23T09:04:00.906Z,1014.64
2018-01-23T09:05:00.551Z,1014.63
2018-01-23T09:06:00.570Z,1014.56
2018-01-23T09:07:00.478Z,1014.60
2018-01-23T09:08:00.474Z,1014.61
2018-01-23T09:09:00.430Z,1014.61
2018-01-23T09:10:00.651Z,1014.60
2018-01-23T09:11:00.496Z,1014.59
2018-01-23T09:12:00.256Z,1014.61
2018-01-23T09:13:00.260Z,1014.62
2018-01-23T09:14:00.219Z,1014.60
2018-01-23T09:15:00.163Z,1014.56
2018-01-23T09:16:00.434Z,1014.60
2018-01-23T09:17:00.042Z,1014.63
2018-01-23T09:18:00.001Z,1014.63
2018-01-23T09:19:00.258Z,1014.61
2018-01-23T09:19:59.911Z,1014.67
2018-01-23T09:20:59.870Z,1014.70
2018-01-23T09:22:00.126Z,1014.65
2018-01-23T09:22:59.832Z,1014.68
2018-01-23T09:23:59.940Z,1014.67
2018-01-23T09:24:59.749Z,1014.59
2018-01-23T09:25:59.654Z,1014.58
2018-01-23T09:26:59.616Z,1014.69
2018-01-23T09:27:59.873Z,1014.73
2018-01-23T09:28:59.579Z,1014.68
2018-01-23T09:29:59.487Z,1014.63
2018-01-23T09:30:59.442Z,1014.66
2018-01-23T09:31:59.401Z,1014.62
2018-01-23T09:32:59.408Z,1014.59
2018-01-23T09:33:59.635Z,1014.66
2018-01-23T09:34:59.580Z,1014.65
2018-01-23T09:35:59.284Z,1014.67
2018-01-23T09:36:59.189Z,1014.73
2018-01-23T09:37:59.195Z,1014.74
2018-01-23T09:38:59.162Z,1014.76
2018-01-23T09:39:59.118Z,1014.68
2018-01-23T09:40:59.127Z,1014.64
2018-01-23T09:41:59.277Z,1014.65
2018-01-23T09:42:58.936Z,1014.70
2018-01-23T09:43:58.944Z,1014.73
2018-01-23T09:44:58.852Z,1014.75
2018-01-23T09:45:58.859Z,1014.78
2018-01-23T09:46:58.766Z,1014.73
2018-01-23T09:47:59.418Z,1014.74
2018-01-23T09:48:59.628Z,1014.82
2018-01-23T09:49:58.642Z,1014.75
2018-01-23T09:50:58.648Z,1014.79
2018-01-23T09:51:58.558Z,1014.81
2018-01-23T09:52:58.568Z,1014.76
2018-01-23T09:53:58.621Z,1014.78
2018-01-23T09:54:58.432Z,1014.80
2018-01-23T09:55:58.743Z,1014.80
2018-01-23T09:56:58.402Z,1014.78
2018-01-23T09:57:58.460Z,1014.74
2018-01-23T09:58:58.312Z,1014.71
2018-01-23T09:59:58.226Z,1014.71
2018-01-23T10:00:58.232Z,1014.70
2018-01-23T10:01:58.133Z,1014.74
2018-01-23T10:02:58.392Z,1014.68
2018-01-23T10:03:58.102Z,1014.73
2018-01-23T10:04:58.008Z,1014.75
2018-01-23T10:05:57.969Z,1014.72
2018-01-23T10:06:57.926Z,1014.68
2018-01-23T10:07:58.083Z,1014.73
2018-01-23T10:08:57.901Z,1014.68
2018-01-23T10:09:58.101Z,1014.74
2018-01-23T10:10:57.810Z,1014.77
2018-01-23T10:11:57.982Z,1014.76
2018-01-23T10:12:57.676Z,1014.85
2018-01-23T10:13:57.682Z,1014.79
2018-01-23T10:14:57.593Z,1014.77
2018-01-23T10:15:58.064Z,1014.82
2018-01-23T10:16:57.656Z,1014.79
2018-01-23T10:17:57.514Z,1014.81
2018-01-23T10:18:57.578Z,1014.88
2018-01-23T10:19:57.378Z,1014.84
2018-01-23T10:20:57.543Z,1014.79
2018-01-23T10:21:57.645Z,1014.84
2018-01-23T10:22:57.411Z,1014.79
2018-01-23T10:23:57.365Z,1014.80
2018-01-23T10:24:57.174Z,1014.77
2018-01-23T10:25:57.180Z,1014.77
2018-01-23T10:26:57.139Z,1014.69
2018-01-23T10:27:57.496Z,1014.66
2018-01-23T10:28:57.203Z,1014.68
2018-01-23T10:29:56.961Z,1014.69
2018-01-23T10:30:56.923Z,1014.68
2018-01-23T10:31:56.925Z,1014.69
2018-01-23T10:32:56.886Z,1014.79
2018-01-23T10:33:57.147Z,1014.70
2018-01-23T10:34:56.820Z,1014.65
2018-01-23T10:35:56.913Z,1014.71
2018-01-23T10:36:56.867Z,1014.69
2018-01-23T10:37:56.790Z,1014.74
2018-01-23T10:38:56.638Z,1014.69
2018-01-23T10:39:56.857Z,1014.69
2018-01-23T10:40:56.704Z,1014.71
2018-01-23T10:41:56.517Z,1014.64
2018-01-23T10:42:56.475Z,1014.61
2018-01-23T10:43:56.428Z,1014.59
2018-01-23T10:44:56.350Z,1014.61
2018-01-23T10:45:56.456Z,1014.61
2018-01-23T10:46:56.605Z,1014.64
2018-01-23T10:47:56.610Z,1014.62
2018-01-23T10:48:56.223Z,1014.61
2018-01-23T10:49:56.174Z,1014.65
2018-01-23T10:50:56.152Z,1014.62
2018-01-23T10:51:56.194Z,1014.60
2018-01-23T10:52:56.607Z,1014.64
2018-01-23T10:53:56.417Z,1014.64
2018-01-23T10:54:55.943Z,1014.67
2018-01-23T10:55:55.937Z,1014.64
2018-01-23T10:56:55.836Z,1014.62
2018-01-23T10:57:55.790Z,1014.57
2018-01-23T10:58:55.798Z,1014.54
2018-01-23T10:59:55.710Z,1014.35
2018-01-23T11:00:56.221Z,1014.51
2018-01-23T11:01:55.681Z,1014.53
2018-01-23T11:02:55.786Z,1014.51
2018-01-23T11:03:55.591Z,1014.52
2018-01-23T11:04:55.504Z,1014.46
2018-01-23T11:05:55.506Z,1014.47
2018-01-23T11:06:55.473Z,1014.42
2018-01-23T11:07:55.674Z,1014.42
2018-01-23T11:08:55.484Z,1014.38
2018-01-23T11:09:55.340Z,1014.33
2018-01-23T11:10:55.551Z,1014.30
2018-01-23T11:11:55.380Z,1014.27
2018-01-23T11:12:55.221Z,1014.31
2018-01-23T11:13:55.175Z,1014.34
2018-01-23T11:14:55.383Z,1014.41
2018-01-23T11:15:55.197Z,1014.34
2018-01-23T11:16:55.201Z,1014.39
2018-01-23T11:17:55.190Z,1014.34
2018-01-23T11:19:54.927Z,1014.37
2018-01-23T11:21:54.992Z,1014.38
2018-01-23T11:22:55.054Z,1014.34
2018-01-23T11:23:54.858Z,1014.32
2018-01-23T11:24:54.743Z,1014.36
2018-01-23T11:25:54.782Z,1014.35
2018-01-23T11:26:54.648Z,1014.37
2018-01-23T11:27:54.640Z,1014.40
2018-01-23T11:28:54.955Z,1014.35
2018-01-23T11:29:54.528Z,1014.38
2018-01-23T11:30:54.474Z,1014.35
2018-01-23T11:31:54.435Z,1014.39
2018-01-23T11:32:54.415Z,1014.38
2018-01-23T11:33:54.391Z,1014.33
2018-01-23T11:34:54.602Z,1014.36
2018-01-23T11:35:54.278Z,1014.33
2018-01-23T11:36:54.330Z,1014.27
2018-01-23T11:37:54.191Z,1014.26
2018-01-23T11:38:54.154Z,1014.33
2018-01-23T11:39:54.116Z,1014.30
2018-01-23T11:40:54.377Z,1014.32
2018-01-23T11:41:54.038Z,1014.27
2018-01-23T11:42:53.978Z,1014.19
2018-01-23T11:43:53.966Z,1014.28
2018-01-23T11:44:53.896Z,1014.26
2018-01-23T11:45:53.853Z,1014.22
2018-01-23T11:46:54.118Z,1014.23
2018-01-23T11:47:53.772Z,1014.19
2018-01-23T11:48:53.878Z,1014.17
2018-01-23T11:49:53.693Z,1014.24
2018-01-23T11:50:53.647Z,1014.20
2018-01-23T11:51:53.638Z,1014.18
2018-01-23T11:52:53.816Z,1014.17
2018-01-23T11:53:53.675Z,1014.22
2018-01-23T11:54:53.535Z,1014.20
2018-01-23T11:55:53.594Z,1014.13
2018-01-23T11:56:53.412Z,1014.14
2018-01-23T11:57:53.329Z,1014.09
2018-01-23T11:58:53.329Z,1014.04
2018-01-23T11:59:53.628Z,1014.06
2018-01-23T12:00:53.345Z,1014.05
2018-01-23T12:01:53.196Z,1014.06
2018-01-23T12:02:53.102Z,1014.01
2018-01-23T12:03:53.241Z,1014.00
2018-01-23T12:04:53.180Z,1014.04
2018-01-23T12:05:53.126Z,1014.03
2018-01-23T12:06:53.294Z,1014.07
2018-01-23T12:07:52.898Z,1014.02